Time;durP1;ratioP1;P1;durP2;ratioP2;P2;SDS_P1;SDS_P2;PMS_P1;PMS_P2;Temp;Humidity;BMP_temperature;BMP_pressure;BME280_temperature;BME280_humidity;BME280_pressure;Samples;Min_cycle;Max_cycle;Signal;HPM_P1;HPM_P2
2022/07/23 00:01:01;;;;;;;10.23;9.30;;;;;;;;;;5051997;28;20869;-78
2022/07/23 00:03:27;;;;;;;10.25;9.27;;;;;;;;;;5051811;28;20492;-78
2022/07/23 00:05:53;;;;;;;9.82;8.85;;;;;;;;;;5051917;28;20382;-78
2022/07/23 00:08:19;;;;;;;9.50;8.68;;;;;;;;;;5051851;28;20508;-78
2022/07/23 00:10:45;;;;;;;9.93;8.80;;;;;;;;;;5051957;28;20377;-77
2022/07/23 00:13:11;;;;;;;9.82;8.98;;;;;;;;;;5052021;28;20473;-77
2022/07/23 00:15:37;;;;;;;9.85;8.98;;;;;;;;;;5051743;28;20464;-77
2022/07/23 00:18:03;;;;;;;10.18;9.07;;;;;;;;;;5052156;28;20419;-77
2022/07/23 00:20:29;;;;;;;9.85;9.05;;;;;;;;;;5051478;28;20862;-77
2022/07/23 00:22:55;;;;;;;10.23;9.35;;;;;;;;;;5052041;28;20476;-77
2022/07/23 00:25:22;;;;;;;10.53;9.70;;;;;;;;;;5051928;28;20474;-78
2022/07/23 00:27:48;;;;;;;9.95;9.20;;;;;;;;;;5051618;28;20417;-78
2022/07/23 00:30:14;;;;;;;9.68;8.88;;;;;;;;;;5052024;28;20418;-78
2022/07/23 00:32:50;;;;;;;10.23;9.32;;;;;;;;;;5051648;28;20731;-78
2022/07/23 00:35:17;;;;;;;9.80;8.88;;;;;;;;;;5051648;28;20385;-78
2022/07/23 00:37:43;;;;;;;10.48;9.57;;;;;;;;;;5051547;28;20381;-78
2022/07/23 00:40:09;;;;;;;11.27;10.32;;;;;;;;;;5051920;28;20386;-78
2022/07/23 00:42:35;;;;;;;11.98;10.95;;;;;;;;;;5051645;28;20388;-79
2022/07/23 00:45:01;;;;;;;10.77;9.88;;;;;;;;;;5051243;28;20755;-79
2022/07/23 00:47:27;;;;;;;11.25;10.25;;;;;;;;;;5042337;28;20411;-78
2022/07/23 00:49:53;;;;;;;10.27;9.40;;;;;;;;;;5049921;28;20424;-78
2022/07/23 00:52:19;;;;;;;10.60;9.63;;;;;;;;;;5051274;28;20382;-79
2022/07/23 00:54:45;;;;;;;9.65;8.95;;;;;;;;;;5051443;28;20406;-79
2022/07/23 00:57:11;;;;;;;10.15;9.45;;;;;;;;;;5051487;28;20378;-79
2022/07/23 00:59:39;;;;;;;10.38;9.50;;;;;;;;;;5033544;28;20393;-78
2022/07/23 01:02:05;;;;;;;9.00;8.30;;;;;;;;;;5051264;28;20389;-78
2022/07/23 01:04:31;;;;;;;10.38;9.38;;;;;;;;;;5051607;28;20393;-79
2022/07/23 01:06:57;;;;;;;9.93;9.13;;;;;;;;;;5054628;28;20385;-79
2022/07/23 01:09:23;;;;;;;10.00;9.20;;;;;;;;;;5055043;28;20488;-78
2022/07/23 01:11:49;;;;;;;9.68;8.88;;;;;;;;;;5055136;28;20896;-78
2022/07/23 01:14:16;;;;;;;9.32;8.70;;;;;;;;;;5054897;28;20378;-78
2022/07/23 01:16:43;;;;;;;9.40;8.70;;;;;;;;;;5054768;28;20850;-78
2022/07/23 01:19:09;;;;;;;9.52;8.82;;;;;;;;;;5054962;28;20743;-78
2022/07/23 01:21:43;;;;;;;9.50;8.80;;;;;;;;;;5054746;28;20373;-79
2022/07/23 01:24:10;;;;;;;9.55;8.75;;;;;;;;;;5036509;28;20742;-78
2022/07/23 01:26:36;;;;;;;9.18;8.40;;;;;;;;;;5054608;28;20378;-78
2022/07/23 01:29:02;;;;;;;9.63;8.83;;;;;;;;;;5054529;28;20401;-78
2022/07/23 01:31:28;;;;;;;9.25;8.63;;;;;;;;;;5054619;28;20431;-79
2022/07/23 01:33:55;;;;;;;9.15;8.45;;;;;;;;;;5054404;28;20378;-78
2022/07/23 01:36:21;;;;;;;8.80;8.10;;;;;;;;;;5054601;28;20447;-78
2022/07/23 01:38:47;;;;;;;9.40;8.70;;;;;;;;;;5054473;28;20875;-79
2022/07/23 01:41:13;;;;;;;9.80;8.90;;;;;;;;;;5054351;28;20377;-78
2022/07/23 01:43:39;;;;;;;9.77;8.98;;;;;;;;;;5054393;28;20377;-78
2022/07/23 01:46:05;;;;;;;9.27;8.50;;;;;;;;;;5054390;28;20430;-78
2022/07/23 01:48:31;;;;;;;9.20;8.52;;;;;;;;;;5045407;28;20405;-78
2022/07/23 01:50:57;;;;;;;8.82;8.23;;;;;;;;;;5054157;28;20377;-79
2022/07/23 01:53:23;;;;;;;8.82;8.13;;;;;;;;;;5054181;28;20406;-79
2022/07/23 01:55:49;;;;;;;8.68;7.97;;;;;;;;;;5053790;28;20377;-78
2022/07/23 01:58:15;;;;;;;8.93;8.15;;;;;;;;;;5054043;28;20443;-79
2022/07/23 02:00:41;;;;;;;8.32;7.70;;;;;;;;;;5053960;28;20955;-78
2022/07/23 02:03:07;;;;;;;8.88;8.07;;;;;;;;;;5053886;28;20401;-78
2022/07/23 02:05:33;;;;;;;8.90;8.20;;;;;;;;;;5049049;28;20383;-79
2022/07/23 02:08:00;;;;;;;7.80;7.20;;;;;;;;;;5044253;28;20835;-78
2022/07/23 02:10:26;;;;;;;7.40;6.90;;;;;;;;;;5048462;28;20420;-79
2022/07/23 02:12:52;;;;;;;8.00;7.40;;;;;;;;;;5052441;28;20594;-79
2022/07/23 02:15:19;;;;;;;8.00;7.40;;;;;;;;;;5051650;28;20431;-79
2022/07/23 02:17:45;;;;;;;8.00;7.50;;;;;;;;;;5051766;28;20389;-79
2022/07/23 02:20:11;;;;;;;7.68;7.00;;;;;;;;;;5053557;28;20382;-78
2022/07/23 02:22:38;;;;;;;7.65;7.05;;;;;;;;;;5053633;28;20381;-78
2022/07/23 02:25:04;;;;;;;8.07;7.40;;;;;;;;;;5053542;28;20482;-78
2022/07/23 02:27:30;;;;;;;7.80;7.20;;;;;;;;;;5052997;28;20433;-79
2022/07/23 02:29:57;;;;;;;7.55;6.95;;;;;;;;;;5053406;28;20432;-78
2022/07/23 02:32:23;;;;;;;7.28;6.80;;;;;;;;;;5053404;28;20413;-78
2022/07/23 02:34:49;;;;;;;8.55;7.90;;;;;;;;;;5053321;28;20381;-78
2022/07/23 02:37:15;;;;;;;8.68;7.97;;;;;;;;;;5052829;28;20397;-78
2022/07/23 02:39:41;;;;;;;9.25;8.48;;;;;;;;;;5053218;28;20870;-78
2022/07/23 02:42:07;;;;;;;8.67;7.90;;;;;;;;;;5053262;28;20523;-78
2022/07/23 02:44:34;;;;;;;8.60;7.80;;;;;;;;;;5053163;28;20392;-78
2022/07/23 02:47:00;;;;;;;8.45;7.85;;;;;;;;;;5047412;28;20474;-78
2022/07/23 02:49:26;;;;;;;8.63;8.00;;;;;;;;;;5049969;28;20435;-78
2022/07/23 02:51:52;;;;;;;8.57;7.97;;;;;;;;;;5052727;28;20374;-78
2022/07/23 02:54:18;;;;;;;9.07;8.23;;;;;;;;;;5049971;28;20461;-79
2022/07/23 02:56:44;;;;;;;9.23;8.52;;;;;;;;;;5052868;28;20381;-79
2022/07/23 02:59:10;;;;;;;9.25;8.45;;;;;;;;;;5052682;28;20735;-79
2022/07/23 03:01:36;;;;;;;8.88;8.23;;;;;;;;;;5052749;28;20377;-79
2022/07/23 03:04:02;;;;;;;9.60;8.70;;;;;;;;;;5041164;28;20483;-78
2022/07/23 03:06:28;;;;;;;10.30;9.50;;;;;;;;;;5052719;28;20393;-78
2022/07/23 03:08:54;;;;;;;10.60;9.70;;;;;;;;;;5052844;28;20409;-78
2022/07/23 03:11:20;;;;;;;9.87;9.17;;;;;;;;;;5047071;28;21638;-78
2022/07/23 03:13:46;;;;;;;10.73;9.93;;;;;;;;;;5050797;28;20396;-78
2022/07/23 03:16:12;;;;;;;10.15;9.25;;;;;;;;;;5050982;28;20369;-80
2022/07/23 03:18:38;;;;;;;9.88;9.07;;;;;;;;;;5052682;28;20381;-80
2022/07/23 03:21:04;;;;;;;10.20;9.40;;;;;;;;;;5051399;28;20805;-79
2022/07/23 03:23:30;;;;;;;10.68;9.77;;;;;;;;;;5035874;28;20417;-79
2022/07/23 03:25:56;;;;;;;10.30;9.43;;;;;;;;;;5034081;28;20379;-79
2022/07/23 03:28:22;;;;;;;11.10;10.10;;;;;;;;;;5043640;28;20413;-79
2022/07/23 03:30:48;;;;;;;10.90;10.00;;;;;;;;;;5034138;28;20381;-78
2022/07/23 03:33:16;;;;;;;10.52;9.57;;;;;;;;;;5052248;28;20377;-78
2022/07/23 03:35:42;;;;;;;11.00;10.18;;;;;;;;;;5052631;28;20389;-78
2022/07/23 03:38:08;;;;;;;10.85;10.05;;;;;;;;;;5051507;28;20472;-78
2022/07/23 03:40:34;;;;;;;11.55;10.75;;;;;;;;;;5052310;28;20409;-79
2022/07/23 03:43:00;;;;;;;11.00;10.15;;;;;;;;;;5052421;28;20435;-79
2022/07/23 03:45:26;;;;;;;10.77;9.68;;;;;;;;;;5052200;28;20373;-78
2022/07/23 03:47:52;;;;;;;10.50;9.57;;;;;;;;;;5043374;28;20401;-78
2022/07/23 03:50:18;;;;;;;10.05;9.35;;;;;;;;;;5052184;28;20389;-79
2022/07/23 03:52:44;;;;;;;10.03;9.27;;;;;;;;;;5052058;28;20408;-79
2022/07/23 03:55:10;;;;;;;10.57;9.77;;;;;;;;;;5052046;28;20389;-78
2022/07/23 03:57:36;;;;;;;11.65;10.68;;;;;;;;;;5051923;28;20397;-78
2022/07/23 04:00:05;;;;;;;11.60;10.70;;;;;;;;;;5052347;28;20401;-78
2022/07/23 04:02:31;;;;;;;10.00;9.40;;;;;;;;;;5051804;28;20394;-79
2022/07/23 04:04:57;;;;;;;10.10;9.30;;;;;;;;;;5051920;28;20911;-78
2022/07/23 04:07:23;;;;;;;10.00;9.20;;;;;;;;;;5052014;28;20401;-78
2022/07/23 04:09:49;;;;;;;11.68;10.50;;;;;;;;;;5048604;28;20419;-78
2022/07/23 04:12:15;;;;;;;12.45;11.60;;;;;;;;;;5045369;28;20385;-79
2022/07/23 04:14:41;;;;;;;13.43;12.32;;;;;;;;;;5043103;28;20915;-79
2022/07/23 04:17:07;;;;;;;11.75;10.70;;;;;;;;;;5048063;28;20750;-78
2022/07/23 04:19:33;;;;;;;12.23;11.15;;;;;;;;;;5040890;28;20861;-79
2022/07/23 04:21:59;;;;;;;12.52;11.30;;;;;;;;;;5040718;28;20387;-79
2022/07/23 04:24:25;;;;;;;12.57;11.40;;;;;;;;;;5052248;28;20474;-78
2022/07/23 04:26:51;;;;;;;10.23;9.43;;;;;;;;;;5051778;28;20385;-78
2022/07/23 04:29:17;;;;;;;10.10;9.10;;;;;;;;;;5051602;28;20417;-77
2022/07/23 04:31:43;;;;;;;10.43;9.57;;;;;;;;;;5051649;28;20417;-78
2022/07/23 04:34:09;;;;;;;11.43;10.43;;;;;;;;;;5051508;28;20384;-78
2022/07/23 04:36:35;;;;;;;12.25;11.25;;;;;;;;;;5051653;28;20373;-77
2022/07/23 04:39:01;;;;;;;11.85;10.93;;;;;;;;;;5051622;28;20858;-77
2022/07/23 04:41:27;;;;;;;11.15;10.15;;;;;;;;;;5054497;28;20467;-77
2022/07/23 04:43:53;;;;;;;11.07;10.27;;;;;;;;;;5055493;28;20831;-77
2022/07/23 04:46:19;;;;;;;10.30;9.50;;;;;;;;;;5055310;28;20380;-77
2022/07/23 04:48:45;;;;;;;10.93;10.07;;;;;;;;;;5046659;28;20518;-78
2022/07/23 04:51:11;;;;;;;11.68;10.70;;;;;;;;;;5051966;28;20377;-78
2022/07/23 04:53:38;;;;;;;11.85;10.98;;;;;;;;;;5055300;28;20389;-78
2022/07/23 04:56:04;;;;;;;11.95;10.85;;;;;;;;;;5055355;28;20377;-78
2022/07/23 04:58:31;;;;;;;11.82;10.63;;;;;;;;;;5055246;28;20385;-78
2022/07/23 05:00:57;;;;;;;10.93;9.83;;;;;;;;;;5055279;28;20381;-78
2022/07/23 05:03:24;;;;;;;11.32;10.35;;;;;;;;;;5054668;28;20394;-78
2022/07/23 05:05:50;;;;;;;10.25;9.35;;;;;;;;;;5055042;28;20405;-78
2022/07/23 05:08:16;;;;;;;11.20;10.30;;;;;;;;;;5054920;28;20444;-78
2022/07/23 05:10:42;;;;;;;10.65;9.75;;;;;;;;;;5055206;28;20897;-77
2022/07/23 05:13:08;;;;;;;15.13;11.13;;;;;;;;;;5054985;28;20386;-77
2022/07/23 05:15:34;;;;;;;12.18;11.07;;;;;;;;;;5054798;28;20373;-77
2022/07/23 05:18:00;;;;;;;14.38;12.93;;;;;;;;;;5055251;28;20472;-77
2022/07/23 05:20:26;;;;;;;15.27;13.77;;;;;;;;;;5054849;28;20439;-78
2022/07/23 05:22:52;;;;;;;15.25;13.95;;;;;;;;;;5050990;28;20405;-78
2022/07/23 05:25:18;;;;;;;14.75;13.50;;;;;;;;;;5053780;28;20468;-77
2022/07/23 05:27:44;;;;;;;13.82;12.60;;;;;;;;;;5054689;28;20401;-78
2022/07/23 05:30:11;;;;;;;13.87;12.67;;;;;;;;;;5054789;28;20437;-78
2022/07/23 05:32:37;;;;;;;13.18;12.18;;;;;;;;;;5044771;28;20413;-78
2022/07/23 05:35:03;;;;;;;12.70;11.70;;;;;;;;;;5052876;28;20447;-78
2022/07/23 05:37:29;;;;;;;12.52;11.55;;;;;;;;;;5037170;28;20923;-79
2022/07/23 05:39:55;;;;;;;11.90;10.85;;;;;;;;;;5052970;28;20855;-79
2022/07/23 05:42:21;;;;;;;11.85;10.93;;;;;;;;;;5039189;28;20383;-79
2022/07/23 05:44:47;;;;;;;12.05;11.05;;;;;;;;;;5036515;28;20424;-79
2022/07/23 05:47:13;;;;;;;11.13;10.33;;;;;;;;;;5046992;28;20442;-79
2022/07/23 05:49:39;;;;;;;13.30;12.10;;;;;;;;;;5035232;28;20417;-79
2022/07/23 05:52:06;;;;;;;12.98;11.88;;;;;;;;;;5039406;28;20394;-79
2022/07/23 05:54:35;;;;;;;12.02;11.05;;;;;;;;;;5047950;28;20402;-79
2022/07/23 05:57:01;;;;;;;11.85;10.90;;;;;;;;;;5035754;28;20457;-80
2022/07/23 05:59:27;;;;;;;11.45;10.55;;;;;;;;;;5039010;28;20708;-79
2022/07/23 06:01:53;;;;;;;10.70;9.90;;;;;;;;;;5049525;28;20430;-77
2022/07/23 06:04:19;;;;;;;10.40;9.60;;;;;;;;;;5054067;28;20867;-77
2022/07/23 06:06:45;;;;;;;11.30;10.40;;;;;;;;;;5053664;28;20461;-77
2022/07/23 06:09:13;;;;;;;11.40;10.57;;;;;;;;;;5053930;28;20409;-77
2022/07/23 06:11:39;;;;;;;11.20;10.40;;;;;;;;;;5053868;28;20381;-78
2022/07/23 06:14:05;;;;;;;11.40;10.50;;;;;;;;;;5053964;28;20439;-78
2022/07/23 06:16:31;;;;;;;12.38;11.35;;;;;;;;;;5053763;28;20453;-79
2022/07/23 06:18:57;;;;;;;12.93;11.73;;;;;;;;;;5053036;28;20464;-78
2022/07/23 06:21:23;;;;;;;12.35;11.35;;;;;;;;;;5053813;28;20820;-78
2022/07/23 06:23:49;;;;;;;11.88;10.88;;;;;;;;;;5051968;28;20388;-78
2022/07/23 06:26:15;;;;;;;13.18;12.10;;;;;;;;;;5052313;28;20456;-78
2022/07/23 06:28:41;;;;;;;12.10;11.20;;;;;;;;;;5052950;28;20496;-78
2022/07/23 06:31:07;;;;;;;11.97;10.97;;;;;;;;;;5052773;28;20858;-78
2022/07/23 06:33:34;;;;;;;11.68;10.88;;;;;;;;;;5053333;28;20370;-79
2022/07/23 06:36:00;;;;;;;11.07;10.27;;;;;;;;;;5053260;28;20389;-78
2022/07/23 06:38:26;;;;;;;11.37;10.43;;;;;;;;;;5053330;28;20426;-78
2022/07/23 06:40:52;;;;;;;10.93;10.13;;;;;;;;;;5053069;28;20377;-78
2022/07/23 06:43:18;;;;;;;11.35;10.45;;;;;;;;;;5050364;28;20901;-79
2022/07/23 06:45:44;;;;;;;10.43;9.52;;;;;;;;;;5053143;28;20381;-79
2022/07/23 06:48:10;;;;;;;12.05;10.98;;;;;;;;;;5044340;28;20401;-78
2022/07/23 06:50:36;;;;;;;11.27;10.45;;;;;;;;;;5053158;28;20384;-78
2022/07/23 06:53:02;;;;;;;11.10;10.30;;;;;;;;;;5053059;28;20449;-78
2022/07/23 06:55:28;;;;;;;11.00;10.20;;;;;;;;;;5053007;28;20388;-78
2022/07/23 06:57:54;;;;;;;11.80;10.83;;;;;;;;;;5042001;28;20923;-78
2022/07/23 07:00:20;;;;;;;12.10;11.23;;;;;;;;;;5052480;28;20385;-79
2022/07/23 07:02:46;;;;;;;12.00;10.80;;;;;;;;;;5042623;28;20399;-79
2022/07/23 07:05:12;;;;;;;10.88;10.02;;;;;;;;;;5045422;28;20996;-79
2022/07/23 07:07:38;;;;;;;11.35;10.45;;;;;;;;;;5043353;28;20460;-79
2022/07/23 07:10:04;;;;;;;11.77;10.77;;;;;;;;;;5049035;28;20379;-79
2022/07/23 07:12:30;;;;;;;9.38;8.68;;;;;;;;;;5052865;28;20384;-79
2022/07/23 07:14:57;;;;;;;10.60;9.80;;;;;;;;;;5050656;28;20423;-79
2022/07/23 07:17:23;;;;;;;9.98;9.18;;;;;;;;;;5033312;28;20379;-81
2022/07/23 07:19:49;;;;;;;9.70;8.88;;;;;;;;;;5031200;28;20397;-79
2022/07/23 07:22:15;;;;;;;9.90;9.07;;;;;;;;;;5032409;28;20380;-78
2022/07/23 07:24:41;;;;;;;9.43;8.65;;;;;;;;;;5033704;28;20382;-79
2022/07/23 07:27:07;;;;;;;9.50;8.60;;;;;;;;;;5047425;28;20412;-80
2022/07/23 07:29:33;;;;;;;10.07;9.35;;;;;;;;;;5051464;28;20444;-79
2022/07/23 07:31:59;;;;;;;9.60;8.90;;;;;;;;;;5052364;28;20447;-79
2022/07/23 07:34:25;;;;;;;9.75;8.95;;;;;;;;;;5052296;28;20853;-80
2022/07/23 07:36:51;;;;;;;9.30;8.57;;;;;;;;;;5052648;28;20463;-79
2022/07/23 07:39:17;;;;;;;9.95;9.15;;;;;;;;;;5044661;28;20417;-80
2022/07/23 07:41:43;;;;;;;9.70;9.02;;;;;;;;;;5032124;28;20472;-80
2022/07/23 07:44:09;;;;;;;10.47;9.53;;;;;;;;;;5032228;28;20867;-80
2022/07/23 07:46:35;;;;;;;10.00;9.27;;;;;;;;;;5033085;28;20383;-79
2022/07/23 07:49:01;;;;;;;10.45;9.45;;;;;;;;;;5052087;28;20412;-79
2022/07/23 07:51:28;;;;;;;10.20;9.32;;;;;;;;;;5034318;28;20377;-80
2022/07/23 07:53:54;;;;;;;10.50;9.70;;;;;;;;;;5052101;28;20460;-80
2022/07/23 07:56:20;;;;;;;9.95;9.05;;;;;;;;;;5051282;28;20896;-80
2022/07/23 07:58:46;;;;;;;10.13;8.97;;;;;;;;;;5041119;28;20724;-81
2022/07/23 08:01:12;;;;;;;11.00;10.10;;;;;;;;;;5051318;28;20385;-81
2022/07/23 08:03:38;;;;;;;9.32;8.63;;;;;;;;;;5050523;28;20424;-82
2022/07/23 08:06:04;;;;;;;9.50;8.80;;;;;;;;;;5051750;28;20901;-81
2022/07/23 08:08:30;;;;;;;10.57;9.68;;;;;;;;;;5051785;28;20410;-81
2022/07/23 08:10:56;;;;;;;11.65;10.75;;;;;;;;;;5052296;28;20388;-81
2022/07/23 08:13:22;;;;;;;11.90;10.90;;;;;;;;;;5051813;28;20837;-82
2022/07/23 08:15:48;;;;;;;11.52;10.52;;;;;;;;;;5053831;28;20464;-82
2022/07/23 08:18:14;;;;;;;11.50;10.60;;;;;;;;;;5056041;28;20459;-82
2022/07/23 08:20:41;;;;;;;12.38;11.27;;;;;;;;;;5056223;28;20421;-81
2022/07/23 08:23:07;;;;;;;12.63;11.73;;;;;;;;;;5055993;28;20377;-81
2022/07/23 08:25:38;;;;;;;11.18;10.30;;;;;;;;;;5037847;28;20901;-81
2022/07/23 08:28:06;;;;;;;11.88;10.80;;;;;;;;;;5055754;28;20770;-81
2022/07/23 08:30:32;;;;;;;12.32;11.30;;;;;;;;;;5055800;28;20381;-81
2022/07/23 08:33:01;;;;;;;12.80;11.80;;;;;;;;;;5055771;28;20872;-81
2022/07/23 08:35:27;;;;;;;12.23;11.23;;;;;;;;;;5054792;28;20377;-82
2022/07/23 08:37:54;;;;;;;11.55;10.75;;;;;;;;;;5043414;28;20396;-81
2022/07/23 08:40:20;;;;;;;10.85;10.05;;;;;;;;;;5055224;28;20858;-82
2022/07/23 08:42:50;;;;;;;13.27;12.27;;;;;;;;;;5055582;28;20435;-82
2022/07/23 08:45:18;;;;;;;13.27;12.23;;;;;;;;;;5055624;28;20381;-81
2022/07/23 08:47:45;;;;;;;11.80;10.80;;;;;;;;;;5046627;28;20405;-82
2022/07/23 08:50:11;;;;;;;13.20;12.15;;;;;;;;;;5055622;28;20389;-82
2022/07/23 08:52:37;;;;;;;12.20;11.20;;;;;;;;;;5055351;28;20430;-81
2022/07/23 08:55:04;;;;;;;11.88;10.93;;;;;;;;;;5055372;28;20378;-82
2022/07/23 08:57:30;;;;;;;12.25;11.25;;;;;;;;;;5055224;28;20460;-81
2022/07/23 08:59:56;;;;;;;12.30;11.23;;;;;;;;;;5055067;28;20456;-82
2022/07/23 09:02:22;;;;;;;12.10;11.10;;;;;;;;;;5055421;28;20401;-81
2022/07/23 09:04:48;;;;;;;11.15;10.35;;;;;;;;;;5055254;28;20956;-82
2022/07/23 09:07:15;;;;;;;12.13;11.30;;;;;;;;;;5054886;28;20428;-81
2022/07/23 09:09:41;;;;;;;12.10;11.23;;;;;;;;;;5055169;28;20417;-82
2022/07/23 09:12:08;;;;;;;11.60;10.80;;;;;;;;;;5054910;28;20401;-82
2022/07/23 09:14:38;;;;;;;12.50;11.50;;;;;;;;;;5055190;28;20392;-81
2022/07/23 09:17:10;;;;;;;12.35;11.43;;;;;;;;;;5054903;28;20373;-81
2022/07/23 09:19:36;;;;;;;11.80;10.80;;;;;;;;;;5054973;28;20730;-82
2022/07/23 09:22:18;;;;;;;10.88;10.02;;;;;;;;;;5054755;28;20378;-82
2022/07/23 09:25:03;;;;;;;12.27;11.38;;;;;;;;;;5054808;28;20443;-81
2022/07/23 09:27:47;;;;;;;10.98;10.05;;;;;;;;;;5053768;28;20416;-81
2022/07/23 09:30:14;;;;;;;10.50;9.77;;;;;;;;;;5054655;28;20366;-81
2022/07/23 09:32:40;;;;;;;10.23;9.52;;;;;;;;;;5040605;28;20408;-82
2022/07/23 09:35:06;;;;;;;11.82;10.88;;;;;;;;;;5054648;28;20374;-81
2022/07/23 09:37:32;;;;;;;11.25;10.35;;;;;;;;;;5054359;28;20499;-81
2022/07/23 09:40:05;;;;;;;11.73;10.73;;;;;;;;;;5054519;28;20476;-81
2022/07/23 09:42:31;;;;;;;10.98;10.13;;;;;;;;;;5054231;28;20428;-81
2022/07/23 09:44:57;;;;;;;11.55;10.65;;;;;;;;;;5054440;28;20370;-81
2022/07/23 09:47:24;;;;;;;12.73;11.73;;;;;;;;;;5045478;28;20411;-82
2022/07/23 09:50:00;;;;;;;12.35;11.45;;;;;;;;;;5054385;28;20377;-81
2022/07/23 09:52:28;;;;;;;12.57;11.57;;;;;;;;;;5050989;28;20377;-81
2022/07/23 09:54:59;;;;;;;12.00;11.10;;;;;;;;;;5054165;28;20381;-81
2022/07/23 09:57:26;;;;;;;11.57;10.68;;;;;;;;;;5054093;28;20797;-82
2022/07/23 09:59:52;;;;;;;11.02;10.32;;;;;;;;;;5054019;28;20448;-82
2022/07/23 10:02:18;;;;;;;11.90;10.80;;;;;;;;;;5053993;28;20427;-82
2022/07/23 10:04:44;;;;;;;10.95;10.15;;;;;;;;;;5054341;28;20423;-82
2022/07/23 10:07:11;;;;;;;10.82;10.07;;;;;;;;;;5053768;28;20416;-82
2022/07/23 10:09:38;;;;;;;10.05;9.25;;;;;;;;;;5054223;28;20409;-81
2022/07/23 10:14:35;;;;;;;10.73;9.93;;;;;;;;;;5053753;28;20374;-82
2022/07/23 10:17:01;;;;;;;11.10;10.30;;;;;;;;;;5053625;28;20393;-82
2022/07/23 10:19:27;;;;;;;10.25;9.45;;;;;;;;;;5053793;28;20386;-82
2022/07/23 10:21:56;;;;;;;9.93;9.23;;;;;;;;;;5053784;28;20409;-80
2022/07/23 10:24:41;;;;;;;10.15;9.45;;;;;;;;;;5053751;28;20464;-85
2022/07/23 10:27:09;;;;;;;9.93;9.13;;;;;;;;;;5053150;28;20377;-85
2022/07/23 10:29:40;;;;;;;10.63;9.68;;;;;;;;;;5048488;28;20746;-83
2022/07/23 10:32:15;;;;;;;10.57;9.88;;;;;;;;;;5050134;28;20920;-83
2022/07/23 10:34:44;;;;;;;10.02;9.23;;;;;;;;;;5055745;28;20388;-84
2022/07/23 10:37:24;;;;;;;10.25;9.35;;;;;;;;;;5055624;28;20449;-86
2022/07/23 10:40:09;;;;;;;9.40;8.70;;;;;;;;;;5052044;28;20381;-87
2022/07/23 10:42:36;;;;;;;10.13;9.32;;;;;;;;;;5052886;28;20448;-87
2022/07/23 10:45:02;;;;;;;9.93;9.23;;;;;;;;;;5035389;28;20746;-87
2022/07/23 10:50:18;;;;;;;9.70;9.10;;;;;;;;;;5052714;28;20895;-86
2022/07/23 10:53:04;;;;;;;9.50;8.85;;;;;;;;;;5056101;28;20453;-85
2022/07/23 10:55:30;;;;;;;10.13;9.23;;;;;;;;;;5052206;28;20377;-85
2022/07/23 10:57:56;;;;;;;9.57;8.88;;;;;;;;;;5052844;28;20482;-86
2022/07/23 11:00:25;;;;;;;9.18;8.48;;;;;;;;;;5052320;28;20438;-86
2022/07/23 11:02:55;;;;;;;9.98;9.18;;;;;;;;;;5051819;28;20465;-89
2022/07/23 11:05:41;;;;;;;9.10;8.50;;;;;;;;;;5052856;28;20941;-89
2022/07/23 11:08:08;;;;;;;9.93;9.15;;;;;;;;;;5053054;28;20405;-86
2022/07/23 11:10:38;;;;;;;9.85;9.05;;;;;;;;;;5057258;28;20380;-86
2022/07/23 11:13:22;;;;;;;9.80;9.03;;;;;;;;;;5051475;28;20461;-88
2022/07/23 11:16:08;;;;;;;9.90;9.20;;;;;;;;;;5046861;28;20385;-86
2022/07/23 11:18:41;;;;;;;9.68;8.88;;;;;;;;;;5050956;28;20408;-87
2022/07/23 11:23:57;;;;;;;9.90;9.10;;;;;;;;;;5050563;28;20373;-85
2022/07/23 11:26:41;;;;;;;9.50;8.60;;;;;;;;;;5049204;28;20461;-85
2022/07/23 11:29:25;;;;;;;9.48;8.80;;;;;;;;;;5052337;28;20420;-86
2022/07/23 11:31:58;;;;;;;9.63;8.82;;;;;;;;;;5051876;28;20374;-86
2022/07/23 11:34:37;;;;;;;10.07;9.27;;;;;;;;;;5051192;28;20381;-83
2022/07/23 11:37:04;;;;;;;9.67;8.97;;;;;;;;;;5051550;28;20461;-82
2022/07/23 11:39:31;;;;;;;9.23;8.57;;;;;;;;;;5052229;28;20409;-84
2022/07/23 11:41:58;;;;;;;9.85;9.15;;;;;;;;;;5052003;28;20910;-83
2022/07/23 11:44:32;;;;;;;10.25;9.55;;;;;;;;;;5050683;28;20389;-86
2022/07/23 11:47:08;;;;;;;10.13;9.43;;;;;;;;;;5049810;28;20381;-86
2022/07/23 11:49:35;;;;;;;10.95;10.00;;;;;;;;;;5051787;28;20405;-87
2022/07/23 11:52:08;;;;;;;11.52;10.63;;;;;;;;;;5050337;28;20688;-88
2022/07/23 11:54:35;;;;;;;10.57;9.88;;;;;;;;;;5047500;28;20468;-88
2022/07/23 11:57:02;;;;;;;11.80;10.98;;;;;;;;;;5049700;28;20393;-88
2022/07/23 11:59:29;;;;;;;11.10;10.20;;;;;;;;;;5051187;28;20636;-89
2022/07/23 12:02:00;;;;;;;10.40;9.60;;;;;;;;;;5051473;28;20420;-90
2022/07/23 12:04:37;;;;;;;9.68;9.05;;;;;;;;;;5052407;28;20389;-89
2022/07/23 12:07:03;;;;;;;11.35;9.27;;;;;;;;;;5050933;28;20381;-90
2022/07/23 12:09:29;;;;;;;10.30;9.60;;;;;;;;;;5050790;28;20412;-89
2022/07/23 12:12:01;;;;;;;10.75;9.95;;;;;;;;;;5050115;28;20377;-90
2022/07/23 12:14:27;;;;;;;10.90;10.10;;;;;;;;;;5048017;28;20423;-90
2022/07/23 12:17:11;;;;;;;11.20;10.30;;;;;;;;;;5051769;28;20385;-89
2022/07/23 12:19:37;;;;;;;10.25;9.45;;;;;;;;;;5051262;28;20479;-89
2022/07/23 12:22:04;;;;;;;9.75;9.05;;;;;;;;;;5049848;28;20385;-88
2022/07/23 12:24:30;;;;;;;10.65;9.85;;;;;;;;;;5050728;28;20413;-88
2022/07/23 12:27:14;;;;;;;9.15;8.55;;;;;;;;;;5051621;28;20385;-89
2022/07/23 12:29:40;;;;;;;10.75;9.95;;;;;;;;;;5050058;28;20936;-89
2022/07/23 12:32:23;;;;;;;9.88;9.07;;;;;;;;;;5051816;28;20373;-88
2022/07/23 12:34:50;;;;;;;9.23;8.50;;;;;;;;;;5055892;28;20379;-88
2022/07/23 12:37:29;;;;;;;10.23;9.43;;;;;;;;;;5052859;28;20914;-89
2022/07/23 12:39:55;;;;;;;9.30;8.70;;;;;;;;;;5040854;28;20409;-89
2022/07/23 12:42:24;;;;;;;9.05;8.25;;;;;;;;;;5051447;28;20439;-90
2022/07/23 12:45:05;;;;;;;8.60;7.90;;;;;;;;;;5051660;28;20846;-90
2022/07/23 12:47:31;;;;;;;9.23;8.43;;;;;;;;;;5051361;28;20401;-90
2022/07/23 12:49:57;;;;;;;8.80;8.10;;;;;;;;;;5051610;28;20410;-89
2022/07/23 12:52:23;;;;;;;9.10;8.50;;;;;;;;;;5051312;28;20380;-90
2022/07/23 12:54:49;;;;;;;8.93;8.32;;;;;;;;;;5051485;28;20388;-90
2022/07/23 12:57:15;;;;;;;9.45;8.75;;;;;;;;;;5051180;28;20419;-90
2022/07/23 12:59:41;;;;;;;8.63;8.00;;;;;;;;;;5051562;28;20377;-89
2022/07/23 13:02:09;;;;;;;10.27;9.38;;;;;;;;;;5053290;28;20439;-90
2022/07/23 13:04:35;;;;;;;9.93;9.13;;;;;;;;;;5055345;28;20389;-91
2022/07/23 13:07:01;;;;;;;9.80;9.20;;;;;;;;;;5055021;28;20392;-89
2022/07/23 13:09:29;;;;;;;9.40;8.67;;;;;;;;;;5055100;28;20471;-89
2022/07/23 13:11:56;;;;;;;9.13;8.50;;;;;;;;;;5054800;28;20381;-89
2022/07/23 13:14:22;;;;;;;9.18;8.35;;;;;;;;;;5055023;28;20873;-92
2022/07/23 13:16:49;;;;;;;9.25;8.45;;;;;;;;;;5040820;28;20379;-90
2022/07/23 13:19:16;;;;;;;10.20;9.48;;;;;;;;;;5055247;28;20384;-91
2022/07/23 13:21:42;;;;;;;9.95;9.10;;;;;;;;;;5036739;28;20476;-90
2022/07/23 13:24:10;;;;;;;10.27;9.47;;;;;;;;;;5054765;28;20392;-90
2022/07/23 13:26:36;;;;;;;9.90;9.20;;;;;;;;;;5054346;28;20373;-92
2022/07/23 13:29:03;;;;;;;9.50;8.70;;;;;;;;;;5051500;28;20494;-89
2022/07/23 13:31:29;;;;;;;9.27;8.55;;;;;;;;;;5047263;28;20447;-90
2022/07/23 13:33:55;;;;;;;9.20;8.50;;;;;;;;;;5034640;28;20390;-91
2022/07/23 13:36:21;;;;;;;9.45;8.65;;;;;;;;;;5053330;28;20933;-91
2022/07/23 13:38:47;;;;;;;11.45;10.52;;;;;;;;;;5054246;28;20453;-91
2022/07/23 13:41:16;;;;;;;10.32;9.52;;;;;;;;;;5054250;28;20443;-90
2022/07/23 13:43:42;;;;;;;10.13;9.35;;;;;;;;;;5054152;28;20389;-90
2022/07/23 13:46:08;;;;;;;9.10;8.35;;;;;;;;;;5054256;28;20863;-90
2022/07/23 13:48:34;;;;;;;8.60;8.00;;;;;;;;;;5045684;28;20459;-90
2022/07/23 13:51:00;;;;;;;8.98;8.38;;;;;;;;;;5052956;28;20750;-90
2022/07/23 13:53:26;;;;;;;9.15;8.55;;;;;;;;;;5052204;28;20381;-91
2022/07/23 13:55:54;;;;;;;9.00;8.30;;;;;;;;;;5052978;28;20381;-91
2022/07/23 13:58:20;;;;;;;9.18;8.52;;;;;;;;;;5050129;28;20389;-90
2022/07/23 14:00:47;;;;;;;9.07;8.38;;;;;;;;;;5034544;28;20755;-89
2022/07/23 14:03:13;;;;;;;9.10;8.48;;;;;;;;;;5034202;28;20401;-91
2022/07/23 14:05:41;;;;;;;9.00;8.30;;;;;;;;;;5050971;28;20381;-90
2022/07/23 14:08:07;;;;;;;8.73;8.05;;;;;;;;;;5049965;28;20480;-91
2022/07/23 14:10:33;;;;;;;8.50;7.80;;;;;;;;;;5052699;28;20508;-89
2022/07/23 14:12:59;;;;;;;8.50;7.90;;;;;;;;;;5034624;28;20429;-89
2022/07/23 14:15:26;;;;;;;8.75;8.10;;;;;;;;;;5053126;28;20377;-88
2022/07/23 14:17:53;;;;;;;9.70;8.90;;;;;;;;;;5052616;28;20859;-88
2022/07/23 14:20:19;;;;;;;8.20;7.60;;;;;;;;;;5052574;28;20428;-89
2022/07/23 14:22:45;;;;;;;8.57;7.97;;;;;;;;;;5052012;28;20392;-89
2022/07/23 14:25:12;;;;;;;8.70;8.00;;;;;;;;;;5052615;28;20896;-90
2022/07/23 14:27:38;;;;;;;8.25;7.65;;;;;;;;;;5052389;28;20544;-90
2022/07/23 14:30:05;;;;;;;7.97;7.47;;;;;;;;;;5052697;28;20382;-88
2022/07/23 14:32:31;;;;;;;8.20;7.45;;;;;;;;;;5051395;28;20862;-92
2022/07/23 14:34:57;;;;;;;8.85;8.25;;;;;;;;;;5052058;28;20460;-89
2022/07/23 14:37:24;;;;;;;9.13;8.20;;;;;;;;;;5053273;28;20378;-89
2022/07/23 14:39:50;;;;;;;8.70;8.10;;;;;;;;;;5052719;28;20460;-89